createdAt,value
2022-10-18T00:49:44.926Z,98
2022-10-18T01:09:44.886Z,97.8
2022-10-18T02:29:44.743Z,98.2
2022-10-18T03:09:44.686Z,98.3
2022-10-18T03:29:44.655Z,98.3
2022-10-18T03:49:44.626Z,98.8
2022-10-18T04:29:44.551Z,98.8
2022-10-18T04:49:44.531Z,98.9
2022-10-18T05:29:44.454Z,99.3
2022-10-18T05:49:44.426Z,99.4
2022-10-18T06:09:44.387Z,99.2
2022-10-18T06:29:44.366Z,98.8
2022-10-18T08:29:44.181Z,86.4
2022-10-18T09:09:44.096Z,96.7
2022-10-18T09:29:44.075Z,95.3
2022-10-18T09:49:44.026Z,95
2022-10-18T10:09:43.988Z,88.9
2022-10-18T10:29:44.916Z,90.1
2022-10-18T10:49:43.934Z,88.3
2022-10-18T11:29:43.859Z,79.7
2022-10-18T11:49:43.827Z,74.2
2022-10-18T12:09:43.848Z,70.9
2022-10-18T12:29:44.382Z,68
2022-10-18T13:09:43.680Z,61.6
2022-10-18T13:29:43.655Z,57.1
2022-10-18T13:49:43.625Z,55.9
2022-10-18T14:49:43.502Z,55.8
2022-10-18T15:09:43.469Z,55.2
2022-10-18T15:29:43.450Z,55.8
2022-10-18T16:09:43.353Z,60.9
2022-10-18T16:29:43.321Z,67
2022-10-18T17:09:43.267Z,82.8
2022-10-18T17:29:43.226Z,87.2
2022-10-18T18:09:43.181Z,91.5
2022-10-18T18:29:43.263Z,93
2022-10-18T19:09:43.073Z,95.1
2022-10-18T19:29:43.052Z,95.9
2022-10-18T19:49:43.045Z,96.4
2022-10-18T20:09:42.994Z,97
2022-10-18T20:29:42.967Z,97.2
2022-10-18T20:49:42.945Z,97.5
2022-10-18T21:09:42.922Z,97.9
2022-10-18T21:29:42.909Z,98
2022-10-18T21:49:42.864Z,98.4
2022-10-18T22:09:42.868Z,98.8
2022-10-18T22:29:42.823Z,98.7
2022-10-18T22:49:42.791Z,99
2022-10-18T23:09:42.763Z,99.1
2022-10-18T23:29:42.753Z,99.2
